EGTC

Cranfield Airport

Cranfield, United Kingdom
METAR EGTC 241120Z 33006KT 270V030 9999 FEW031 13/05 Q1038
Observed Flight Rules
Sep-24 @ 11:20 UTC (13 minutes ago) Visual Flight Rules
Wind Visibility Clouds
330° at 6 knots 10,000+ meters
  • Few at 3,100' AGL
Temperatures Readings
Current 13°C / 55°F
Dewpoint 5°C / 41°F
Humidity 59%
Altimeter 30.65" Hg
Pressure 1038 hPa
Elevation 111
METAR EGTC 241120Z 33006KT 270V030 9999 FEW031 13/05 Q1038
Observed Flight Rules
Sep-24 @ 11:20 UTC
(13 minutes ago)
VFR
Wind Visibility
330° at 6 knots 10,000+ meters
Clouds
  • Few at 3,100' AGL
Temperature Dewpoint
13°C / 55°F 5°C / 41°F
Humidity Altimeter Pressure
59% 30.65" Hg 1038 hPa